createdAt,value
2023-04-19T00:01:03.304Z,2.55
2023-04-19T00:03:31.653Z,2.35
2023-04-19T00:05:59.343Z,2.30
2023-04-19T00:08:26.750Z,2.47
2023-04-19T00:10:54.195Z,2.58
2023-04-19T00:13:21.994Z,2.70
2023-04-19T00:15:49.187Z,2.20
2023-04-19T00:18:16.612Z,2.60
2023-04-19T00:20:44.287Z,2.33
2023-04-19T00:23:11.388Z,2.40
2023-04-19T00:25:39.066Z,2.78
2023-04-19T00:28:06.175Z,2.53
2023-04-19T00:30:33.334Z,2.58
2023-04-19T00:33:01.167Z,2.22
2023-04-19T00:35:28.272Z,1.90
2023-04-19T00:37:55.476Z,2.50
2023-04-19T00:40:23.009Z,2.50
2023-04-19T00:42:50.201Z,2.10
2023-04-19T00:45:17.328Z,2.70
2023-04-19T00:47:44.901Z,3.08
2023-04-19T00:50:12.599Z,2.15
2023-04-19T00:52:39.973Z,2.35
2023-04-19T00:55:08.192Z,2.60
2023-04-19T00:57:35.529Z,2.10
2023-04-19T01:00:02.851Z,2.28
2023-04-19T01:02:32.035Z,2.45
2023-04-19T01:04:59.260Z,2.70
2023-04-19T01:07:26.609Z,1.92
2023-04-19T01:09:54.140Z,2.00
2023-04-19T01:12:23.055Z,2.03
2023-04-19T01:14:50.651Z,2.60
2023-04-19T01:17:19.323Z,2.30
2023-04-19T01:19:46.685Z,2.05
2023-04-19T01:22:21.489Z,2.28
2023-04-19T01:24:48.929Z,2.22
2023-04-19T01:27:17.572Z,2.45
2023-04-19T01:29:44.749Z,2.70
2023-04-19T01:32:13.779Z,2.50
2023-04-19T01:34:42.012Z,2.40
2023-04-19T01:37:09.257Z,1.87
2023-04-19T01:39:36.770Z,2.33
2023-04-19T01:42:04.457Z,2.90
2023-04-19T01:44:31.654Z,2.53
2023-04-19T01:47:00.394Z,2.10
2023-04-19T01:49:27.683Z,2.50
2023-04-19T01:51:54.862Z,2.25
2023-04-19T01:54:22.320Z,2.17
2023-04-19T01:56:50.855Z,2.35
2023-04-19T01:59:18.057Z,3.60
2023-04-19T02:01:45.825Z,2.47
2023-04-19T02:04:13.511Z,4.97
2023-04-19T02:06:40.973Z,3.67
2023-04-19T02:09:08.424Z,2.72
2023-04-19T02:11:35.876Z,2.42
2023-04-19T02:14:03.016Z,2.47
2023-04-19T02:16:30.196Z,2.62
2023-04-19T02:18:58.762Z,2.72
2023-04-19T02:21:26.008Z,2.80
2023-04-19T02:23:53.153Z,2.65
2023-04-19T02:26:20.710Z,3.00
2023-04-19T02:28:48.129Z,3.08
2023-04-19T02:31:15.675Z,3.08
2023-04-19T02:33:44.084Z,2.78
2023-04-19T02:36:12.169Z,2.65
2023-04-19T02:38:39.296Z,3.12
2023-04-19T02:41:06.402Z,2.70
2023-04-19T02:43:33.818Z,3.80
2023-04-19T02:46:01.595Z,3.22
2023-04-19T02:48:28.873Z,3.50
2023-04-19T02:50:56.358Z,3.15
2023-04-19T02:53:23.676Z,3.42
2023-04-19T02:55:51.188Z,3.40
2023-04-19T02:58:18.894Z,3.60
2023-04-19T03:00:46.482Z,3.25
2023-04-19T03:03:14.613Z,3.67
2023-04-19T03:05:42.089Z,3.25
2023-04-19T03:08:11.160Z,3.20
2023-04-19T03:10:38.629Z,3.58
2023-04-19T03:13:06.006Z,3.35
2023-04-19T03:15:33.126Z,3.92
2023-04-19T03:18:00.362Z,3.87
2023-04-19T03:20:28.252Z,3.70
2023-04-19T03:22:56.448Z,3.35
2023-04-19T03:25:24.195Z,3.40
2023-04-19T03:27:52.749Z,3.20
2023-04-19T03:30:20.978Z,3.20
2023-04-19T03:32:48.376Z,3.37
2023-04-19T03:35:16.183Z,2.87
2023-04-19T03:37:44.013Z,2.70
2023-04-19T03:40:11.692Z,3.75
2023-04-19T03:42:39.554Z,3.35
2023-04-19T03:45:07.326Z,3.10
2023-04-19T03:47:35.033Z,3.25
2023-04-19T03:50:03.474Z,3.25
2023-04-19T03:52:31.351Z,3.08
2023-04-19T03:54:58.533Z,2.92
2023-04-19T03:57:26.474Z,2.55
2023-04-19T03:59:53.917Z,3.28
2023-04-19T04:02:21.321Z,3.55
2023-04-19T04:04:54.192Z,2.87
2023-04-19T04:07:23.238Z,3.22
2023-04-19T04:09:51.546Z,2.97
2023-04-19T04:12:18.685Z,4.05
2023-04-19T04:14:47.229Z,2.90
2023-04-19T04:17:15.326Z,2.80
2023-04-19T04:19:42.972Z,2.97
2023-04-19T04:22:10.183Z,2.62
2023-04-19T04:24:41.464Z,3.08
2023-04-19T04:27:11.036Z,3.20
2023-04-19T04:29:39.784Z,3.45
2023-04-19T04:32:10.875Z,3.80
2023-04-19T04:34:38.586Z,3.00
2023-04-19T04:37:07.800Z,2.90
2023-04-19T04:39:39.223Z,2.80
2023-04-19T04:42:08.956Z,3.17
2023-04-19T04:44:37.229Z,3.20
2023-04-19T04:47:04.933Z,2.85
2023-04-19T04:49:33.491Z,2.70
2023-04-19T04:52:00.815Z,3.72
2023-04-19T04:54:28.961Z,4.10
2023-04-19T04:56:57.281Z,3.67
2023-04-19T04:59:24.536Z,6.68
2023-04-19T05:01:51.796Z,4.70
2023-04-19T05:04:19.645Z,3.37
2023-04-19T05:06:46.921Z,3.40
2023-04-19T05:09:17.348Z,2.70
2023-04-19T05:11:45.809Z,2.62
2023-04-19T05:14:13.436Z,2.45
2023-04-19T05:16:40.892Z,3.58
2023-04-19T05:19:08.324Z,5.37
2023-04-19T05:21:36.353Z,3.22
2023-04-19T05:24:04.231Z,3.97
2023-04-19T05:26:33.126Z,3.50
2023-04-19T05:29:00.768Z,2.65
2023-04-19T05:31:28.463Z,2.83
2023-04-19T05:33:56.234Z,2.85
2023-04-19T05:36:23.368Z,2.80
2023-04-19T05:38:52.158Z,3.35
2023-04-19T05:41:20.870Z,3.08
2023-04-19T05:43:48.158Z,2.97
2023-04-19T05:46:15.614Z,3.12
2023-04-19T05:48:43.097Z,3.22
2023-04-19T05:51:10.654Z,3.37
2023-04-19T05:53:39.392Z,3.12
2023-04-19T05:56:07.260Z,3.55
2023-04-19T05:58:34.438Z,2.92
2023-04-19T06:01:02.308Z,3.20
2023-04-19T06:03:32.222Z,3.37
2023-04-19T06:06:00.548Z,3.45
2023-04-19T06:08:27.825Z,2.90
2023-04-19T06:13:24.410Z,2.83
2023-04-19T06:15:52.577Z,3.25
2023-04-19T06:18:21.358Z,3.33
2023-04-19T06:20:48.592Z,3.37
2023-04-19T06:23:17.223Z,3.78
2023-04-19T06:25:44.763Z,3.85
2023-04-19T06:28:11.877Z,3.28
2023-04-19T06:30:39.065Z,4.05
2023-04-19T06:33:06.721Z,3.83
2023-04-19T06:35:33.843Z,3.40
2023-04-19T06:38:00.994Z,3.58
2023-04-19T06:40:29.400Z,3.60
2023-04-19T06:42:59.455Z,3.50
2023-04-19T06:45:27.184Z,3.60
2023-04-19T06:47:54.614Z,3.58
2023-04-19T06:50:21.933Z,3.60
2023-04-19T06:52:49.123Z,4.35
2023-04-19T06:55:16.552Z,3.67
2023-04-19T06:57:43.691Z,3.47
2023-04-19T07:00:11.542Z,3.30
2023-04-19T07:02:39.047Z,3.03
2023-04-19T07:05:08.495Z,3.22
2023-04-19T07:07:38.196Z,3.30
2023-04-19T07:10:06.287Z,3.50
2023-04-19T07:12:33.415Z,2.90
2023-04-19T07:15:00.651Z,3.08
2023-04-19T07:17:28.519Z,2.80
2023-04-19T07:19:56.265Z,2.67
2023-04-19T07:22:23.402Z,2.80
2023-04-19T07:24:52.166Z,2.45
2023-04-19T07:27:19.360Z,2.50
2023-04-19T07:29:46.824Z,2.28
2023-04-19T07:32:15.257Z,2.00
2023-04-19T07:34:43.560Z,2.65
2023-04-19T07:37:11.094Z,3.00
2023-04-19T07:39:39.468Z,4.15
2023-04-19T07:42:06.606Z,3.45
2023-04-19T07:44:33.796Z,4.32
2023-04-19T07:47:01.262Z,4.78
2023-04-19T07:49:33.844Z,5.40
2023-04-19T07:52:02.020Z,6.25
2023-04-19T07:54:30.246Z,5.40
2023-04-19T07:56:59.012Z,4.60
2023-04-19T07:59:26.447Z,3.58
2023-04-19T08:01:53.708Z,4.25
2023-04-19T08:04:23.256Z,3.90
2023-04-19T08:06:50.599Z,3.37
2023-04-19T08:09:17.721Z,3.55
2023-04-19T08:11:45.153Z,3.37
2023-04-19T08:14:22.235Z,4.12
2023-04-19T08:17:22.457Z,3.15
2023-04-19T08:19:45.421Z,2.85
2023-04-19T08:22:12.800Z,3.65
2023-04-19T08:24:39.904Z,3.25
2023-04-19T08:27:07.137Z,2.75
2023-04-19T08:29:34.745Z,3.22
2023-04-19T08:32:01.989Z,2.58
2023-04-19T08:34:29.187Z,3.30
2023-04-19T08:37:03.960Z,4.00
2023-04-19T08:39:33.923Z,3.65
2023-04-19T08:42:09.245Z,4.00
2023-04-19T08:44:59.631Z,4.20
2023-04-19T08:47:35.544Z,4.43
2023-04-19T08:50:17.419Z,4.37
2023-04-19T08:52:58.775Z,5.35
2023-04-19T08:55:30.993Z,5.03
2023-04-19T08:57:58.809Z,4.87
2023-04-19T09:00:26.096Z,4.57
2023-04-19T09:02:55.942Z,4.65
2023-04-19T09:05:23.837Z,5.25
2023-04-19T09:07:51.645Z,4.70
2023-04-19T09:10:21.218Z,4.10
2023-04-19T09:13:05.413Z,4.37
2023-04-19T09:15:37.918Z,5.30
2023-04-19T09:18:07.774Z,5.25
2023-04-19T09:20:39.245Z,5.05
2023-04-19T09:23:08.855Z,5.87
2023-04-19T09:25:55.373Z,5.40
2023-04-19T09:28:24.261Z,5.43
2023-04-19T09:33:39.953Z,5.18
2023-04-19T09:36:08.466Z,5.35
2023-04-19T09:38:49.154Z,4.97
2023-04-19T09:41:19.735Z,4.30
2023-04-19T09:44:07.344Z,5.70
2023-04-19T09:46:37.151Z,5.82
2023-04-19T09:51:48.121Z,6.00
2023-04-19T09:54:16.771Z,6.03
2023-04-19T09:56:44.782Z,5.57
2023-04-19T09:59:20.407Z,6.00
2023-04-19T10:01:56.549Z,6.53
2023-04-19T10:04:38.470Z,5.72
2023-04-19T10:09:52.494Z,5.70
2023-04-19T10:12:46.253Z,6.80
2023-04-19T10:15:13.673Z,6.80
2023-04-19T10:17:41.819Z,6.70
2023-04-19T10:20:12.140Z,7.12
2023-04-19T10:22:40.083Z,6.32
2023-04-19T10:25:15.689Z,6.87
2023-04-19T10:27:49.044Z,7.80
2023-04-19T10:30:23.326Z,8.40
2023-04-19T10:32:56.501Z,8.85
2023-04-19T10:35:26.027Z,8.60
2023-04-19T10:38:08.647Z,8.55
2023-04-19T10:40:51.522Z,7.72
2023-04-19T10:43:19.828Z,8.90
2023-04-19T10:45:47.824Z,8.18
2023-04-19T10:48:27.608Z,9.85
2023-04-19T10:51:23.252Z,7.22
2023-04-19T10:53:52.470Z,7.28
2023-04-19T10:56:41.266Z,8.23
2023-04-19T10:59:13.181Z,7.70
2023-04-19T11:01:45.595Z,7.87
2023-04-19T11:04:17.519Z,8.50
2023-04-19T11:06:51.469Z,6.60
2023-04-19T11:09:30.998Z,7.93
2023-04-19T11:12:11.045Z,7.30
2023-04-19T11:14:49.320Z,8.40
2023-04-19T11:17:20.897Z,7.78
2023-04-19T11:20:01.090Z,7.03
2023-04-19T11:22:37.925Z,6.70
2023-04-19T11:25:21.897Z,6.22
2023-04-19T11:27:53.036Z,5.95
2023-04-19T11:30:22.780Z,5.85
2023-04-19T11:32:53.750Z,6.45
2023-04-19T11:35:22.694Z,6.62
2023-04-19T11:37:50.361Z,6.57
2023-04-19T11:40:19.736Z,7.65
2023-04-19T11:42:47.414Z,7.30
2023-04-19T11:45:30.283Z,7.05
2023-04-19T11:48:00.446Z,7.43
2023-04-19T11:50:35.053Z,7.43
2023-04-19T11:53:21.604Z,8.68
2023-04-19T11:55:53.780Z,8.60
2023-04-19T11:58:31.991Z,8.65
2023-04-19T12:01:06.978Z,9.55
2023-04-19T12:03:40.299Z,8.63
2023-04-19T12:06:11.788Z,11.43
2023-04-19T12:08:43.637Z,9.70
2023-04-19T12:11:10.997Z,8.70
2023-04-19T12:13:38.343Z,7.40
2023-04-19T12:16:06.164Z,7.75
2023-04-19T12:18:49.159Z,8.57
2023-04-19T12:21:27.554Z,8.27
2023-04-19T12:23:56.459Z,8.40
2023-04-19T12:26:25.311Z,9.30
2023-04-19T12:28:52.560Z,8.27
2023-04-19T12:31:20.803Z,9.40
2023-04-19T12:33:49.123Z,8.02
2023-04-19T12:36:16.441Z,8.13
2023-04-19T12:38:43.944Z,7.78
2023-04-19T12:41:11.700Z,7.70
2023-04-19T12:43:38.816Z,7.35
2023-04-19T12:46:06.191Z,6.70
2023-04-19T12:48:33.833Z,6.75
2023-04-19T12:51:01.199Z,7.72
2023-04-19T12:53:28.481Z,7.07
2023-04-19T12:55:56.002Z,9.52
2023-04-19T12:58:23.244Z,7.30
2023-04-19T13:00:50.994Z,6.53
2023-04-19T13:03:18.737Z,6.50
2023-04-19T13:05:46.088Z,6.75
2023-04-19T13:08:13.305Z,7.40
2023-04-19T13:10:40.847Z,6.62
2023-04-19T13:13:08.063Z,6.45
2023-04-19T13:15:35.442Z,6.10
2023-04-19T13:18:03.089Z,5.80
2023-04-19T13:20:30.378Z,6.25
2023-04-19T13:22:57.569Z,6.95
2023-04-19T13:25:25.049Z,6.93
2023-04-19T13:27:52.534Z,6.70
2023-04-19T13:30:19.780Z,7.00
2023-04-19T13:32:47.372Z,7.03
2023-04-19T13:35:14.577Z,7.68
2023-04-19T13:37:44.290Z,9.35
2023-04-19T13:40:18.888Z,9.90
2023-04-19T13:42:46.775Z,11.27
2023-04-19T13:45:14.274Z,10.57
2023-04-19T13:47:41.446Z,11.45
2023-04-19T13:50:09.009Z,11.18
2023-04-19T13:52:36.472Z,13.00
2023-04-19T13:55:03.781Z,12.27
2023-04-19T13:57:31.139Z,11.40
2023-04-19T13:59:58.589Z,12.02
2023-04-19T14:02:26.035Z,10.45
2023-04-19T14:04:53.595Z,9.65
2023-04-19T14:07:20.755Z,10.35
2023-04-19T14:09:48.453Z,11.70
2023-04-19T14:12:15.957Z,10.88
2023-04-19T14:14:43.149Z,10.95
2023-04-19T14:17:10.228Z,9.23
2023-04-19T14:19:37.943Z,9.25
2023-04-19T14:22:05.076Z,9.60
2023-04-19T14:24:32.266Z,8.85
2023-04-19T14:27:10.225Z,9.13
2023-04-19T14:29:37.850Z,8.45
2023-04-19T14:32:24.490Z,10.65
2023-04-19T14:34:54.905Z,8.30
2023-04-19T14:37:23.402Z,7.62
2023-04-19T14:39:50.932Z,8.07
2023-04-19T14:42:20.126Z,7.65
2023-04-19T14:44:52.520Z,7.45
2023-04-19T14:47:20.837Z,7.72
2023-04-19T14:49:48.046Z,7.35
2023-04-19T14:52:16.165Z,7.93
2023-04-19T14:54:43.456Z,7.45
2023-04-19T14:57:10.690Z,7.53
2023-04-19T14:59:38.079Z,7.15
2023-04-19T15:02:05.944Z,7.85
2023-04-19T15:04:40.596Z,6.82
2023-04-19T15:07:08.830Z,6.70
2023-04-19T15:09:36.088Z,6.43
2023-04-19T15:12:03.257Z,7.32
2023-04-19T15:14:30.692Z,6.15
2023-04-19T15:16:57.777Z,6.70
2023-04-19T15:19:24.854Z,6.75
2023-04-19T15:21:52.347Z,6.12
2023-04-19T15:24:19.404Z,6.20
2023-04-19T15:26:46.582Z,6.37
2023-04-19T15:29:14.410Z,6.93
2023-04-19T15:31:41.775Z,7.25
2023-04-19T15:34:08.914Z,6.97
2023-04-19T15:36:36.388Z,6.53
2023-04-19T15:39:03.521Z,6.97
2023-04-19T15:41:30.729Z,7.70
2023-04-19T15:43:58.148Z,6.30
2023-04-19T15:46:25.303Z,5.85
2023-04-19T15:48:52.863Z,6.50
2023-04-19T15:51:20.248Z,7.80
2023-04-19T15:53:47.341Z,5.95
2023-04-19T15:56:14.457Z,6.43
2023-04-19T15:58:42.262Z,7.18
2023-04-19T16:01:13.266Z,11.35
2023-04-19T16:03:41.401Z,6.22
2023-04-19T16:06:08.764Z,5.57
2023-04-19T16:08:35.979Z,5.57
2023-04-19T16:11:05.471Z,5.22
2023-04-19T16:13:32.628Z,5.95
2023-04-19T16:16:01.338Z,5.57
2023-04-19T16:18:28.913Z,5.22
2023-04-19T16:20:56.094Z,5.65
2023-04-19T16:23:24.361Z,6.03
2023-04-19T16:25:54.274Z,12.15
2023-04-19T16:28:23.291Z,5.70
2023-04-19T16:30:50.416Z,4.70
2023-04-19T16:33:17.877Z,5.82
2023-04-19T16:35:45.414Z,5.25
2023-04-19T16:38:12.585Z,5.22
2023-04-19T16:40:40.262Z,5.30
2023-04-19T16:43:07.495Z,5.12
2023-04-19T16:45:34.661Z,5.82
2023-04-19T16:48:02.258Z,4.70
2023-04-19T16:50:29.440Z,4.37
2023-04-19T16:52:58.438Z,4.32
2023-04-19T16:55:25.860Z,4.07
2023-04-19T16:57:55.535Z,4.20
2023-04-19T17:00:23.345Z,4.10
2023-04-19T17:02:52.052Z,3.80
2023-04-19T17:05:19.731Z,3.28
2023-04-19T17:07:46.865Z,3.60
2023-04-19T17:10:14.313Z,3.17
2023-04-19T17:12:41.472Z,4.43
2023-04-19T17:15:08.948Z,3.83
2023-04-19T17:17:36.487Z,3.97
2023-04-19T17:20:05.753Z,3.75
2023-04-19T17:22:32.975Z,3.55
2023-04-19T17:25:00.501Z,3.95
2023-04-19T17:27:27.712Z,3.87
2023-04-19T17:29:54.853Z,4.12
2023-04-19T17:32:22.261Z,4.45
2023-04-19T17:34:51.915Z,4.90
2023-04-19T17:37:19.004Z,4.37
2023-04-19T17:39:46.478Z,4.78
2023-04-19T17:42:13.633Z,4.47
2023-04-19T17:44:40.865Z,5.12
2023-04-19T17:47:08.249Z,4.57
2023-04-19T17:49:35.383Z,5.30
2023-04-19T17:52:02.550Z,5.35
2023-04-19T17:54:30.075Z,5.62
2023-04-19T17:57:02.511Z,5.93
2023-04-19T17:59:30.233Z,5.85
2023-04-19T18:01:57.459Z,4.97
2023-04-19T18:04:25.068Z,7.18
2023-04-19T18:06:52.406Z,6.05
2023-04-19T18:09:20.423Z,5.20
2023-04-19T18:11:47.982Z,9.25
2023-04-19T18:14:15.420Z,7.25
2023-04-19T18:16:42.861Z,5.78
2023-04-19T18:19:11.439Z,6.18
2023-04-19T18:21:38.614Z,7.18
2023-04-19T18:24:06.235Z,8.15
2023-04-19T18:26:40.384Z,6.12
2023-04-19T18:29:07.609Z,5.50
2023-04-19T18:31:35.180Z,8.55
2023-04-19T18:34:02.935Z,6.93
2023-04-19T18:36:30.256Z,5.53
2023-04-19T18:38:57.769Z,6.07
2023-04-19T18:41:24.991Z,6.40
2023-04-19T18:44:25.857Z,16.02
2023-04-19T18:46:41.984Z,6.18
2023-04-19T18:49:10.153Z,7.93
2023-04-19T18:51:39.000Z,7.00
2023-04-19T18:54:06.479Z,7.35
2023-04-19T18:59:04.077Z,8.77
2023-04-19T19:01:34.252Z,8.10
2023-04-19T19:04:23.938Z,6.47
2023-04-19T19:06:49.982Z,7.05
2023-04-19T19:09:17.710Z,6.47
2023-04-19T19:11:56.206Z,5.50
2023-04-19T19:14:24.567Z,6.53
2023-04-19T19:16:53.014Z,6.03
2023-04-19T19:19:22.440Z,5.78
2023-04-19T19:21:52.120Z,6.78
2023-04-19T19:24:19.348Z,6.72
2023-04-19T19:26:46.558Z,6.37
2023-04-19T19:29:16.962Z,5.97
2023-04-19T19:31:44.279Z,5.85
2023-04-19T19:34:25.442Z,5.97
2023-04-19T19:39:23.877Z,5.70
2023-04-19T19:42:05.393Z,6.55
2023-04-19T19:44:33.855Z,5.35
2023-04-19T19:47:01.131Z,5.53
2023-04-19T19:49:28.420Z,6.45
2023-04-19T19:51:59.454Z,5.95
2023-04-19T19:54:27.431Z,6.37
2023-04-19T19:59:30.165Z,6.45
2023-04-19T20:01:57.916Z,5.90
2023-04-19T20:04:25.947Z,5.45
2023-04-19T20:09:23.329Z,6.20
2023-04-19T20:11:50.788Z,5.15
2023-04-19T20:14:17.976Z,5.85
2023-04-19T20:16:45.298Z,6.22
2023-04-19T20:19:13.175Z,6.20
2023-04-19T20:21:40.464Z,5.65
2023-04-19T20:24:08.065Z,5.82
2023-04-19T20:26:35.681Z,6.57
2023-04-19T20:29:02.967Z,6.03
2023-04-19T20:31:30.288Z,6.05
2023-04-19T20:33:57.852Z,5.93
2023-04-19T20:36:25.108Z,6.30
2023-04-19T20:38:52.316Z,6.43
2023-04-19T20:41:22.097Z,8.05
2023-04-19T20:43:49.315Z,8.25
2023-04-19T20:46:16.920Z,10.68
2023-04-19T20:48:44.489Z,8.35
2023-04-19T20:51:12.784Z,9.55
2023-04-19T20:53:39.959Z,9.07
2023-04-19T20:56:07.468Z,7.82
2023-04-19T20:58:35.100Z,8.07
2023-04-19T21:01:02.397Z,8.02
2023-04-19T21:03:30.056Z,6.20
2023-04-19T21:05:57.326Z,9.80
2023-04-19T21:08:24.511Z,9.20
2023-04-19T21:10:52.006Z,7.90
2023-04-19T21:13:19.202Z,8.00
2023-04-19T21:15:46.470Z,7.72
2023-04-19T21:18:14.074Z,7.35
2023-04-19T21:20:41.270Z,8.15
2023-04-19T21:23:08.585Z,7.22
2023-04-19T21:25:36.131Z,6.82
2023-04-19T21:28:03.350Z,7.87
2023-04-19T21:30:30.639Z,8.05
2023-04-19T21:32:58.191Z,7.07
2023-04-19T21:35:26.073Z,7.37
2023-04-19T21:37:53.270Z,7.50
2023-04-19T21:40:20.860Z,7.03
2023-04-19T21:42:48.041Z,6.97
2023-04-19T21:45:15.249Z,7.55
2023-04-19T21:47:42.783Z,9.77
2023-04-19T21:50:10.317Z,8.55
2023-04-19T21:52:40.541Z,9.35
2023-04-19T21:55:08.514Z,13.52
2023-04-19T21:57:37.611Z,49.08
2023-04-19T22:00:06.455Z,26.73
2023-04-19T22:02:33.978Z,16.05
2023-04-19T22:05:02.028Z,9.73
2023-04-19T22:07:32.408Z,10.25
2023-04-19T22:10:01.386Z,9.13
2023-04-19T22:12:30.960Z,8.10
2023-04-19T22:14:58.079Z,8.63
2023-04-19T22:17:25.258Z,7.65
2023-04-19T22:19:54.173Z,7.82
2023-04-19T22:22:21.286Z,7.97
2023-04-19T22:24:57.398Z,7.62
2023-04-19T22:27:25.900Z,7.12
2023-04-19T22:29:53.251Z,7.18
2023-04-19T22:32:20.487Z,7.12
2023-04-19T22:34:47.903Z,7.62
2023-04-19T22:37:15.027Z,7.53
2023-04-19T22:39:42.146Z,8.57
2023-04-19T22:42:09.598Z,7.40
2023-04-19T22:44:36.728Z,7.60
2023-04-19T22:47:04.938Z,7.43
2023-04-19T22:49:33.055Z,8.25
2023-04-19T22:52:00.263Z,8.48
2023-04-19T22:54:27.397Z,8.18
2023-04-19T22:56:54.894Z,7.12
2023-04-19T22:59:22.070Z,9.68
2023-04-19T23:01:49.386Z,9.90
2023-04-19T23:04:17.182Z,8.23
2023-04-19T23:06:44.726Z,9.20
2023-04-19T23:09:13.829Z,7.85
2023-04-19T23:11:42.232Z,8.65
2023-04-19T23:14:10.509Z,9.45
2023-04-19T23:16:38.751Z,10.18
2023-04-19T23:19:07.533Z,9.07
2023-04-19T23:21:34.776Z,7.97
2023-04-19T23:24:01.965Z,7.85
2023-04-19T23:26:30.182Z,8.65
2023-04-19T23:28:57.343Z,7.50
2023-04-19T23:31:24.628Z,8.05
2023-04-19T23:33:52.152Z,10.38
2023-04-19T23:36:19.307Z,11.57
2023-04-19T23:38:46.560Z,13.10
2023-04-19T23:41:14.067Z,10.52
2023-04-19T23:43:41.258Z,9.15
2023-04-19T23:46:08.510Z,7.93
2023-04-19T23:48:36.100Z,8.48
2023-04-19T23:51:03.396Z,10.73
2023-04-19T23:53:30.826Z,13.70
2023-04-19T23:55:58.248Z,13.68
2023-04-19T23:58:25.453Z,15.05
